createdAt,value
2018-12-26T00:02:19.571Z,95914.45
2018-12-26T00:04:49.389Z,95910.55
2018-12-26T00:07:19.105Z,95912.23
2018-12-26T00:09:49.094Z,95917.89
2018-12-26T00:12:18.832Z,95913.77
2018-12-26T00:14:48.737Z,95919.33
2018-12-26T00:17:18.448Z,95921.27
2018-12-26T00:19:48.183Z,95915.63
2018-12-26T00:22:17.965Z,95920.25
2018-12-26T00:24:47.665Z,95923.03
2018-12-26T00:27:17.189Z,95925.42
2018-12-26T00:29:46.723Z,95925.13
2018-12-26T00:32:17.348Z,95926.23
2018-12-26T00:34:46.951Z,95929.25
2018-12-26T00:37:16.665Z,95924.80
2018-12-26T00:39:48.026Z,95931.19
2018-12-26T00:42:17.698Z,95934.30
2018-12-26T00:44:47.228Z,95934.30
2018-12-26T00:47:16.739Z,95938.02
2018-12-26T00:49:46.344Z,95936.36
2018-12-26T00:52:15.846Z,95938.94
2018-12-26T00:54:45.309Z,95926.36
2018-12-26T00:57:15.861Z,95925.64
2018-12-26T00:59:45.686Z,95926.56
2018-12-26T01:02:15.409Z,95920.25
2018-12-26T01:04:45.085Z,95922.94
2018-12-26T01:07:14.744Z,95916.64
2018-12-26T01:09:44.286Z,95925.62
2018-12-26T01:12:13.848Z,95916.34
2018-12-26T01:14:43.520Z,95918.22
2018-12-26T01:17:13.070Z,95906.75
2018-12-26T01:19:42.663Z,95907.50
2018-12-26T01:22:12.183Z,95908.82
2018-12-26T01:24:41.686Z,95906.63
2018-12-26T01:27:11.294Z,95917.46
2018-12-26T01:29:40.985Z,95922.31
2018-12-26T01:32:10.512Z,95920.77
2018-12-26T01:34:39.984Z,95911.60
2018-12-26T01:37:09.726Z,95908.72
2018-12-26T01:39:39.323Z,95904.17
2018-12-26T01:42:08.804Z,95900.86
2018-12-26T01:44:38.450Z,95896.91
2018-12-26T01:47:08.227Z,95896.84
2018-12-26T01:49:37.944Z,95892.29
2018-12-26T01:52:07.703Z,95883.55
2018-12-26T01:54:37.561Z,95884.86
2018-12-26T01:57:07.271Z,95888.36
2018-12-26T01:59:37.040Z,95880.41
2018-12-26T02:02:06.888Z,95879.20
2018-12-26T02:04:36.522Z,95884.23
2018-12-26T02:07:06.245Z,95886.13
2018-12-26T02:09:36.043Z,95883.48
2018-12-26T02:12:05.863Z,95891.20
2018-12-26T02:14:35.656Z,95890.06
2018-12-26T02:17:05.385Z,95895.59
2018-12-26T02:19:35.189Z,95894.34
2018-12-26T02:22:04.924Z,95883.74
2018-12-26T02:24:34.740Z,95871.83
2018-12-26T02:27:04.326Z,95875.43
2018-12-26T02:29:34.038Z,95888.27
2018-12-26T02:32:03.868Z,95880.02
2018-12-26T02:34:33.668Z,95872.94
2018-12-26T02:37:03.385Z,95868.91
2018-12-26T02:39:33.089Z,95868.39
2018-12-26T02:42:02.937Z,95870.98
2018-12-26T02:44:32.677Z,95877.95
2018-12-26T02:47:02.434Z,95876.12
2018-12-26T02:49:32.238Z,95867.94
2018-12-26T02:52:01.935Z,95862.43
2018-12-26T02:54:31.761Z,95863.67
2018-12-26T02:57:01.418Z,95870.62
2018-12-26T02:59:31.292Z,95867.21
2018-12-26T03:02:00.960Z,95873.40
2018-12-26T03:04:30.881Z,95878.67
2018-12-26T03:07:00.591Z,95876.94
2018-12-26T03:09:30.269Z,95865.45
2018-12-26T03:11:59.830Z,95875.98
2018-12-26T03:14:29.370Z,95874.55
2018-12-26T03:16:58.981Z,95870.62
2018-12-26T03:19:28.580Z,95880.83
2018-12-26T03:21:58.188Z,95876.90
2018-12-26T03:24:27.699Z,95877.63
2018-12-26T03:26:57.318Z,95877.45
2018-12-26T03:29:26.923Z,95882.01
2018-12-26T03:31:56.565Z,95887.08
2018-12-26T03:34:26.111Z,95890.70
2018-12-26T03:36:55.758Z,95900.59
2018-12-26T03:39:25.329Z,95903.05
2018-12-26T03:41:54.758Z,95902.34
2018-12-26T03:44:24.363Z,95903.19
2018-12-26T03:46:53.941Z,95900.59
2018-12-26T03:49:23.481Z,95895.75
2018-12-26T03:51:53.085Z,95896.59
2018-12-26T03:54:22.767Z,95903.33
2018-12-26T03:56:52.301Z,95902.48
2018-12-26T03:59:21.912Z,95901.34
2018-12-26T04:01:51.523Z,95900.31
2018-12-26T04:04:21.053Z,95898.88
2018-12-26T04:06:50.609Z,95904.97
2018-12-26T04:09:20.239Z,95914.36
2018-12-26T04:11:49.748Z,95911.15
2018-12-26T04:14:19.247Z,95916.73
2018-12-26T04:16:48.860Z,95918.19
2018-12-26T04:19:18.475Z,95917.13
2018-12-26T04:21:47.969Z,95922.02
2018-12-26T04:24:17.604Z,95915.83
2018-12-26T04:26:47.173Z,95904.14
2018-12-26T04:29:16.715Z,95908.16
2018-12-26T04:31:48.156Z,95912.62
2018-12-26T04:34:17.760Z,95915.70
2018-12-26T04:36:47.259Z,95916.63
2018-12-26T04:39:16.744Z,95932.91
2018-12-26T04:41:46.370Z,95934.78
2018-12-26T04:44:15.991Z,95937.98
2018-12-26T04:46:45.586Z,95932.84
2018-12-26T04:49:15.310Z,95931.80
2018-12-26T04:51:44.997Z,95925.00
2018-12-26T04:54:14.523Z,95924.38
2018-12-26T04:56:44.133Z,95925.92
2018-12-26T04:59:13.727Z,95918.59
2018-12-26T05:01:43.245Z,95930.33
2018-12-26T05:04:12.873Z,95927.43
2018-12-26T05:06:42.232Z,95937.05
2018-12-26T05:09:11.800Z,95930.75
2018-12-26T05:11:41.454Z,95933.54
2018-12-26T05:14:11.091Z,95928.80
2018-12-26T05:16:40.582Z,95928.19
2018-12-26T05:19:10.108Z,95935.59
2018-12-26T05:21:39.811Z,95944.80
2018-12-26T05:24:09.425Z,95951.19
2018-12-26T05:26:38.982Z,95962.23
2018-12-26T05:29:08.658Z,95963.36
2018-12-26T05:31:38.228Z,95964.08
2018-12-26T05:34:07.757Z,95969.56
2018-12-26T05:36:37.347Z,95968.22
2018-12-26T05:39:08.583Z,95971.33
2018-12-26T05:41:38.110Z,95973.48
2018-12-26T05:44:08.754Z,95980.59
2018-12-26T05:46:38.391Z,95977.39
2018-12-26T05:49:07.976Z,95981.50
2018-12-26T05:51:37.563Z,95984.71
2018-12-26T05:54:07.215Z,95984.61
2018-12-26T05:56:36.898Z,95984.20
2018-12-26T05:59:06.475Z,95984.00
2018-12-26T06:01:36.104Z,95990.70
2018-12-26T06:04:05.919Z,95991.73
2018-12-26T06:06:35.282Z,95994.43
2018-12-26T06:09:06.734Z,95996.91
2018-12-26T06:11:36.450Z,95998.00
2018-12-26T06:14:05.999Z,96001.64
2018-12-26T06:16:35.612Z,96003.08
2018-12-26T06:19:05.753Z,95996.27
2018-12-26T06:21:35.214Z,96010.41
2018-12-26T06:24:04.801Z,96001.86
2018-12-26T06:26:34.446Z,96011.66
2018-12-26T06:29:04.072Z,96014.73
2018-12-26T06:31:33.745Z,96016.91
2018-12-26T06:34:03.389Z,96012.37
2018-12-26T06:36:33.118Z,96012.78
2018-12-26T06:39:02.648Z,96013.60
2018-12-26T06:41:32.303Z,96022.00
2018-12-26T06:44:01.801Z,96021.38
2018-12-26T06:46:31.451Z,96021.16
2018-12-26T06:49:01.231Z,96022.30
2018-12-26T06:51:31.053Z,96029.09
2018-12-26T06:54:00.650Z,96028.58
2018-12-26T06:56:30.157Z,96028.17
2018-12-26T06:58:59.879Z,96024.86
2018-12-26T07:01:29.452Z,96024.75
2018-12-26T07:03:59.028Z,96030.53
2018-12-26T07:06:28.685Z,96034.48
2018-12-26T07:08:58.271Z,96036.84
2018-12-26T07:11:27.939Z,96046.02
2018-12-26T07:13:57.586Z,96039.83
2018-12-26T07:16:27.452Z,96037.87
2018-12-26T07:18:57.063Z,96039.52
2018-12-26T07:21:26.766Z,96037.87
2018-12-26T07:23:56.349Z,96038.80
2018-12-26T07:26:25.957Z,96039.63
2018-12-26T07:28:55.586Z,96039.63
2018-12-26T07:31:25.253Z,96048.59
2018-12-26T07:33:54.754Z,96049.59
2018-12-26T07:36:24.425Z,96051.80
2018-12-26T07:38:54.152Z,96043.45
2018-12-26T07:41:23.932Z,96044.78
2018-12-26T07:43:53.676Z,96047.69
2018-12-26T07:46:23.390Z,96049.86
2018-12-26T07:48:53.283Z,96051.30
2018-12-26T07:51:23.072Z,96053.77
2018-12-26T07:53:52.902Z,96052.33
2018-12-26T07:56:22.689Z,96051.20
2018-12-26T07:58:52.242Z,96058.09
2018-12-26T08:01:21.978Z,96054.19
2018-12-26T08:03:51.332Z,96055.74
2018-12-26T08:06:20.911Z,96055.00
2018-12-26T08:08:50.644Z,96063.16
2018-12-26T08:11:20.486Z,96066.17
2018-12-26T08:13:50.119Z,96060.90
2018-12-26T08:16:19.904Z,96059.86
2018-12-26T08:18:49.521Z,96060.19
2018-12-26T08:21:19.172Z,96057.17
2018-12-26T08:23:48.912Z,96059.26
2018-12-26T08:26:18.517Z,96053.37
2018-12-26T08:28:48.139Z,96060.37
2018-12-26T08:31:17.964Z,96060.37
2018-12-26T08:33:47.606Z,96058.64
2018-12-26T08:36:17.568Z,96061.73
2018-12-26T08:38:47.138Z,96051.93
2018-12-26T08:41:18.643Z,96050.88
2018-12-26T08:43:48.359Z,96054.61
2018-12-26T08:46:18.102Z,96052.64
2018-12-26T08:48:47.768Z,96046.75
2018-12-26T08:51:17.407Z,96051.19
2018-12-26T08:53:47.221Z,96053.66
2018-12-26T08:56:16.819Z,96044.98
2018-12-26T08:58:46.525Z,96046.13
2018-12-26T09:01:16.167Z,96039.31
2018-12-26T09:03:45.786Z,96036.73
2018-12-26T09:06:15.671Z,96031.66
2018-12-26T09:08:45.213Z,96041.48
2018-12-26T09:11:14.982Z,96038.80
2018-12-26T09:13:44.683Z,96038.27
2018-12-26T09:16:14.291Z,96032.48
2018-12-26T09:18:43.880Z,96032.41
2018-12-26T09:21:13.532Z,96031.17
2018-12-26T09:23:43.313Z,96025.09
2018-12-26T09:26:13.985Z,96021.45
2018-12-26T09:28:44.019Z,96021.15
2018-12-26T09:31:13.907Z,96007.72
2018-12-26T09:33:43.496Z,95995.23
2018-12-26T09:36:13.136Z,95998.86
2018-12-26T09:38:43.927Z,96005.55
2018-12-26T09:41:13.678Z,95995.96
2018-12-26T09:43:43.372Z,95991.20
2018-12-26T09:46:13.078Z,95986.78
2018-12-26T09:48:42.638Z,95982.45
2018-12-26T09:51:12.468Z,95983.46
2018-12-26T09:53:42.203Z,95979.75
2018-12-26T09:56:11.830Z,95973.23
2018-12-26T09:58:41.415Z,95970.36
2018-12-26T10:01:11.152Z,95958.91
2018-12-26T10:03:40.752Z,95958.69
2018-12-26T10:06:10.451Z,95955.62
2018-12-26T10:08:40.196Z,95952.29
2018-12-26T10:11:09.833Z,95946.20
2018-12-26T10:13:39.369Z,95946.72
2018-12-26T10:16:09.166Z,95942.27
2018-12-26T10:18:38.645Z,95940.80
2018-12-26T10:21:08.396Z,95931.34
2018-12-26T10:23:38.015Z,95930.72
2018-12-26T10:26:07.828Z,95931.23
2018-12-26T10:28:37.643Z,95923.58
2018-12-26T10:31:07.064Z,95915.95
2018-12-26T10:33:36.568Z,95914.28
2018-12-26T10:36:06.152Z,95912.84
2018-12-26T10:38:35.811Z,95901.19
2018-12-26T10:41:05.481Z,95904.27
2018-12-26T10:43:35.008Z,95897.16
2018-12-26T10:46:04.586Z,95902.63
2018-12-26T10:48:34.310Z,95905.73
2018-12-26T10:51:03.834Z,95902.44
2018-12-26T10:53:33.412Z,95899.52
2018-12-26T10:56:02.911Z,95898.18
2018-12-26T10:58:32.669Z,95888.49
2018-12-26T11:01:02.332Z,95898.80
2018-12-26T11:03:32.054Z,95895.89
2018-12-26T11:06:01.761Z,95892.09
2018-12-26T11:08:31.375Z,95900.17
2018-12-26T11:11:00.945Z,95898.73
2018-12-26T11:13:30.699Z,95908.49
2018-12-26T11:16:00.478Z,95898.38
2018-12-26T11:18:30.151Z,95888.78
2018-12-26T11:21:00.024Z,95894.34
2018-12-26T11:23:29.667Z,95889.51
2018-12-26T11:25:59.347Z,95878.44
2018-12-26T11:28:28.961Z,95869.10
2018-12-26T11:30:58.772Z,95862.52
2018-12-26T11:33:28.385Z,95868.15
2018-12-26T11:35:57.988Z,95873.52
2018-12-26T11:38:27.776Z,95868.97
2018-12-26T11:40:57.361Z,95865.16
2018-12-26T11:43:26.989Z,95866.83
2018-12-26T11:45:56.656Z,95864.87
2018-12-26T11:48:26.124Z,95866.50
2018-12-26T11:50:55.805Z,95868.08
2018-12-26T11:53:25.499Z,95858.27
2018-12-26T11:55:55.086Z,95857.97
2018-12-26T11:58:24.776Z,95861.45
2018-12-26T12:00:54.400Z,95862.39
2018-12-26T12:03:24.010Z,95871.78
2018-12-26T12:05:53.593Z,95866.12
2018-12-26T12:08:23.235Z,95874.70
2018-12-26T12:10:53.130Z,95875.61
2018-12-26T12:13:22.745Z,95871.88
2018-12-26T12:15:52.455Z,95867.55
2018-12-26T12:18:22.062Z,95867.12
2018-12-26T12:20:51.620Z,95866.69
2018-12-26T12:23:21.381Z,95876.00
2018-12-26T12:25:51.005Z,95871.45
2018-12-26T12:28:20.346Z,95881.59
2018-12-26T12:30:50.087Z,95882.39
2018-12-26T12:33:22.438Z,95884.72
2018-12-26T12:35:52.383Z,95879.94
2018-12-26T12:38:21.997Z,95886.84
2018-12-26T12:40:51.775Z,95877.38
2018-12-26T12:43:21.318Z,95878.50
2018-12-26T12:45:50.913Z,95877.68
2018-12-26T12:48:20.550Z,95880.27
2018-12-26T12:50:50.279Z,95868.71
2018-12-26T12:53:19.956Z,95863.54
2018-12-26T12:55:49.556Z,95866.94
2018-12-26T12:58:19.607Z,95864.94
2018-12-26T13:00:49.197Z,95866.28
2018-12-26T13:03:18.793Z,95868.89
2018-12-26T13:05:48.607Z,95875.91
2018-12-26T13:08:18.317Z,95880.69
2018-12-26T13:10:47.924Z,95885.73
2018-12-26T13:13:17.575Z,95883.14
2018-12-26T13:15:47.342Z,95880.06
2018-12-26T13:18:17.013Z,95877.77
2018-12-26T13:20:46.607Z,95884.09
2018-12-26T13:23:16.354Z,95879.63
2018-12-26T13:25:45.981Z,95871.53
2018-12-26T13:28:15.725Z,95873.55
2018-12-26T13:30:45.440Z,95874.70
2018-12-26T13:33:15.014Z,95868.33
2018-12-26T13:35:44.615Z,95870.72
2018-12-26T13:38:14.335Z,95873.59
2018-12-26T13:40:43.960Z,95871.54
2018-12-26T13:43:13.772Z,95872.79
2018-12-26T13:45:43.527Z,95870.23
2018-12-26T13:48:13.116Z,95870.10
2018-12-26T13:50:42.689Z,95872.16
2018-12-26T13:53:12.300Z,95861.61
2018-12-26T13:55:42.049Z,95869.27
2018-12-26T13:58:11.719Z,95864.44
2018-12-26T14:00:41.427Z,95872.16
2018-12-26T14:03:11.127Z,95860.98
2018-12-26T14:05:40.977Z,95864.48
2018-12-26T14:08:10.665Z,95864.39
2018-12-26T14:10:40.376Z,95864.48
2018-12-26T14:13:10.201Z,95863.53
2018-12-26T14:15:39.951Z,95859.94
2018-12-26T14:18:10.018Z,95854.98
2018-12-26T14:20:39.623Z,95857.87
2018-12-26T14:23:09.474Z,95855.47
2018-12-26T14:25:39.173Z,95858.25
2018-12-26T14:28:08.721Z,95862.28
2018-12-26T14:30:38.404Z,95848.60
2018-12-26T14:33:08.076Z,95831.50
2018-12-26T14:35:37.710Z,95850.28
2018-12-26T14:38:07.387Z,95847.94
2018-12-26T14:40:37.013Z,95843.16
2018-12-26T14:43:06.607Z,95840.06
2018-12-26T14:45:36.249Z,95844.11
2018-12-26T14:48:05.929Z,95840.99
2018-12-26T14:50:35.871Z,95837.29
2018-12-26T14:53:05.445Z,95843.25
2018-12-26T14:55:35.178Z,95838.06
2018-12-26T14:58:04.886Z,95829.91
2018-12-26T15:00:34.504Z,95830.69
2018-12-26T15:03:04.094Z,95826.31
2018-12-26T15:05:33.721Z,95822.41
2018-12-26T15:08:03.301Z,95826.14
2018-12-26T15:10:33.028Z,95825.93
2018-12-26T15:13:02.732Z,95820.05
2018-12-26T15:15:32.446Z,95815.63
2018-12-26T15:18:02.050Z,95818.70
2018-12-26T15:20:31.669Z,95823.59
2018-12-26T15:23:01.239Z,95819.91
2018-12-26T15:25:30.749Z,95821.47
2018-12-26T15:28:00.493Z,95821.04
2018-12-26T15:30:31.941Z,95809.38
2018-12-26T15:33:01.544Z,95807.30
2018-12-26T15:35:31.390Z,95804.66
2018-12-26T15:38:01.087Z,95805.23
2018-12-26T15:40:30.590Z,95806.58
2018-12-26T15:43:00.192Z,95804.23
2018-12-26T15:45:29.897Z,95797.42
2018-12-26T15:47:59.533Z,95804.95
2018-12-26T15:50:29.316Z,95796.28
2018-12-26T15:52:59.016Z,95798.72
2018-12-26T15:55:28.761Z,95803.41
2018-12-26T15:57:58.338Z,95805.87
2018-12-26T16:00:28.314Z,95799.91
2018-12-26T16:02:57.965Z,95798.19
2018-12-26T16:05:27.584Z,95779.84
2018-12-26T16:07:57.221Z,95790.80
2018-12-26T16:10:27.040Z,95782.81
2018-12-26T16:12:56.489Z,95780.79
2018-12-26T16:15:26.120Z,95775.95
2018-12-26T16:17:55.834Z,95776.44
2018-12-26T16:20:25.709Z,95779.20
2018-12-26T16:22:55.347Z,95768.57
2018-12-26T16:25:25.067Z,95779.02
2018-12-26T16:27:54.799Z,95771.81
2018-12-26T16:30:24.498Z,95777.67
2018-12-26T16:32:54.127Z,95776.98
2018-12-26T16:35:23.825Z,95782.67
2018-12-26T16:38:01.316Z,95786.70
2018-12-26T16:40:24.990Z,95792.05
2018-12-26T16:42:54.771Z,95788.24
2018-12-26T16:45:24.223Z,95790.59
2018-12-26T16:47:53.920Z,95788.86
2018-12-26T16:50:27.110Z,95790.20
2018-12-26T16:52:54.749Z,95789.97
2018-12-26T16:55:24.369Z,95787.59
2018-12-26T16:57:54.109Z,95785.44
2018-12-26T17:00:23.567Z,95784.92
2018-12-26T17:02:53.316Z,95787.36
2018-12-26T17:05:23.001Z,95780.20
2018-12-26T17:07:52.746Z,95773.34
2018-12-26T17:10:22.936Z,95763.33
2018-12-26T17:12:52.641Z,95759.02
2018-12-26T17:15:22.302Z,95759.80
2018-12-26T17:17:52.096Z,95769.03
2018-12-26T17:20:21.753Z,95772.73
2018-12-26T17:22:51.501Z,95775.74
2018-12-26T17:25:21.236Z,95781.48
2018-12-26T17:27:50.904Z,95778.80
2018-12-26T17:30:20.669Z,95770.45
2018-12-26T17:32:50.348Z,95763.12
2018-12-26T17:35:19.743Z,95771.98
2018-12-26T17:37:49.476Z,95768.23
2018-12-26T17:40:19.158Z,95772.79
2018-12-26T17:42:48.822Z,95772.27
2018-12-26T17:45:23.912Z,95775.30
2018-12-26T17:47:53.579Z,95784.23
2018-12-26T17:50:49.822Z,95784.53
2018-12-26T17:53:46.567Z,95784.91
2018-12-26T17:56:24.697Z,95766.55
2018-12-26T17:59:21.449Z,95777.38
2018-12-26T18:02:02.680Z,95771.28
2018-12-26T18:04:32.440Z,95772.44
2018-12-26T18:07:02.247Z,95784.44
2018-12-26T18:09:31.865Z,95783.14
2018-12-26T18:12:11.715Z,95778.64
2018-12-26T18:14:32.962Z,95772.84
2018-12-26T18:17:02.661Z,95769.54
2018-12-26T18:19:32.337Z,95765.73
2018-12-26T18:22:01.991Z,95770.81
2018-12-26T18:24:31.623Z,95760.58
2018-12-26T18:27:01.338Z,95762.05
2018-12-26T18:29:31.075Z,95774.60
2018-12-26T18:32:00.876Z,95773.17
2018-12-26T18:34:30.559Z,95767.69
2018-12-26T18:37:00.288Z,95780.84
2018-12-26T18:39:29.798Z,95781.28
2018-12-26T18:41:59.444Z,95778.86
2018-12-26T18:44:29.678Z,95770.92
2018-12-26T18:46:59.472Z,95774.56
2018-12-26T18:49:29.192Z,95771.65
2018-12-26T18:51:58.785Z,95772.66
2018-12-26T18:54:28.425Z,95765.80
2018-12-26T18:56:58.313Z,95770.88
2018-12-26T18:59:28.030Z,95767.96
2018-12-26T19:01:57.732Z,95767.85
2018-12-26T19:04:27.446Z,95762.25
2018-12-26T19:06:57.169Z,95772.88
2018-12-26T19:09:27.112Z,95762.34
2018-12-26T19:11:56.815Z,95766.37
2018-12-26T19:14:26.557Z,95766.42
2018-12-26T19:16:56.214Z,95759.70
2018-12-26T19:19:25.874Z,95750.51
2018-12-26T19:21:55.526Z,95761.14
2018-12-26T19:24:25.158Z,95755.06
2018-12-26T19:26:54.629Z,95756.95
2018-12-26T19:29:24.288Z,95758.11
2018-12-26T19:31:53.923Z,95767.45
2018-12-26T19:34:23.727Z,95767.14
2018-12-26T19:36:53.284Z,95760.31
2018-12-26T19:39:23.068Z,95766.62
2018-12-26T19:41:52.611Z,95763.94
2018-12-26T19:44:22.439Z,95773.27
2018-12-26T19:46:52.046Z,95755.28
2018-12-26T19:49:21.748Z,95756.48
2018-12-26T19:51:51.534Z,95756.29
2018-12-26T19:54:21.269Z,95754.38
2018-12-26T19:56:50.953Z,95758.41
2018-12-26T19:59:20.579Z,95752.83
2018-12-26T20:01:50.293Z,95759.25
2018-12-26T20:04:19.750Z,95756.95
2018-12-26T20:06:49.253Z,95751.17
2018-12-26T20:09:18.908Z,95757.91
2018-12-26T20:11:48.541Z,95753.79
2018-12-26T20:14:18.127Z,95750.59
2018-12-26T20:16:48.040Z,95748.96
2018-12-26T20:19:17.792Z,95750.67
2018-12-26T20:21:47.548Z,95746.90
2018-12-26T20:24:17.182Z,95747.63
2018-12-26T20:26:46.872Z,95744.12
2018-12-26T20:29:16.508Z,95744.94
2018-12-26T20:31:46.058Z,95754.91
2018-12-26T20:34:15.707Z,95749.48
2018-12-26T20:36:45.518Z,95752.71
2018-12-26T20:39:15.124Z,95758.45
2018-12-26T20:41:44.836Z,95758.18
2018-12-26T20:44:14.466Z,95746.30
2018-12-26T20:46:44.141Z,95759.41
2018-12-26T20:49:14.015Z,95755.37
2018-12-26T20:51:43.678Z,95750.88
2018-12-26T20:54:13.378Z,95747.28
2018-12-26T20:56:43.007Z,95745.75
2018-12-26T20:59:12.752Z,95740.81
2018-12-26T21:01:42.269Z,95747.14
2018-12-26T21:04:11.943Z,95742.12
2018-12-26T21:06:42.119Z,95741.82
2018-12-26T21:09:11.752Z,95747.85
2018-12-26T21:11:41.351Z,95752.56
2018-12-26T21:14:11.112Z,95749.83
2018-12-26T21:16:40.779Z,95746.23
2018-12-26T21:19:10.449Z,95744.59
2018-12-26T21:21:39.997Z,95743.64
2018-12-26T21:24:09.509Z,95740.57
2018-12-26T21:26:39.212Z,95740.50
2018-12-26T21:29:08.932Z,95735.17
2018-12-26T21:31:38.639Z,95741.69
2018-12-26T21:34:08.382Z,95733.44
2018-12-26T21:36:38.070Z,95736.55
2018-12-26T21:39:08.908Z,95742.73
2018-12-26T21:41:38.504Z,95741.59
2018-12-26T21:44:08.174Z,95738.62
2018-12-26T21:46:37.824Z,95740.34
2018-12-26T21:49:07.432Z,95741.06
2018-12-26T21:51:37.114Z,95746.05
2018-12-26T21:54:06.888Z,95740.30
2018-12-26T21:56:36.494Z,95743.42
2018-12-26T21:59:06.176Z,95742.83
2018-12-26T22:01:35.746Z,95733.59
2018-12-26T22:04:05.538Z,95737.76
2018-12-26T22:06:35.240Z,95730.38
2018-12-26T22:09:06.351Z,95732.69
2018-12-26T22:11:35.947Z,95735.41
2018-12-26T22:14:05.692Z,95735.22
2018-12-26T22:16:35.284Z,95736.27
2018-12-26T22:19:04.978Z,95739.63
2018-12-26T22:21:34.702Z,95734.03
2018-12-26T22:24:04.395Z,95729.71
2018-12-26T22:26:43.282Z,95733.02
2018-12-26T22:29:12.392Z,95732.44
2018-12-26T22:31:42.042Z,95728.50
2018-12-26T22:34:11.655Z,95728.46
2018-12-26T22:36:41.266Z,95730.19
2018-12-26T22:39:10.964Z,95730.86
2018-12-26T22:41:40.584Z,95728.94
2018-12-26T22:44:10.227Z,95723.05
2018-12-26T22:46:39.936Z,95729.84
2018-12-26T22:49:09.504Z,95722.42
2018-12-26T22:51:42.050Z,95725.59
2018-12-26T22:54:10.692Z,95723.56
2018-12-26T22:56:40.393Z,95724.30
2018-12-26T22:59:09.948Z,95729.75
2018-12-26T23:01:39.754Z,95722.09
2018-12-26T23:04:09.311Z,95727.07
2018-12-26T23:06:39.027Z,95721.52
2018-12-26T23:09:08.904Z,95716.11
2018-12-26T23:11:38.686Z,95724.30
2018-12-26T23:14:08.246Z,95719.84
2018-12-26T23:16:37.910Z,95718.83
2018-12-26T23:19:07.571Z,95717.27
2018-12-26T23:21:37.189Z,95714.28
2018-12-26T23:24:06.792Z,95713.08
2018-12-26T23:26:36.523Z,95715.01
2018-12-26T23:29:06.104Z,95707.72
2018-12-26T23:31:35.628Z,95707.23
2018-12-26T23:34:05.316Z,95707.63
2018-12-26T23:36:35.001Z,95707.67
2018-12-26T23:39:05.761Z,95714.66
2018-12-26T23:41:35.509Z,95714.47
2018-12-26T23:44:05.167Z,95715.14
2018-12-26T23:46:34.795Z,95710.82
2018-12-26T23:49:04.426Z,95718.59
2018-12-26T23:51:34.131Z,95719.55
2018-12-26T23:54:03.702Z,95722.33
2018-12-26T23:56:33.240Z,95716.24
2018-12-26T23:59:03.058Z,95717.44
